createdAt,value
2018-07-09T00:01:46.356Z,45.90
2018-07-09T00:04:15.185Z,45.80
2018-07-09T00:06:44.027Z,46.00
2018-07-09T00:09:13.096Z,46.10
2018-07-09T00:11:41.704Z,46.30
2018-07-09T00:14:10.534Z,46.50
2018-07-09T00:16:39.385Z,46.40
2018-07-09T00:19:08.225Z,46.50
2018-07-09T00:21:37.811Z,46.60
2018-07-09T00:24:06.644Z,46.80
2018-07-09T00:26:35.485Z,47.20
2018-07-09T00:29:04.319Z,47.40
2018-07-09T00:31:33.163Z,47.60
2018-07-09T00:34:01.998Z,47.70
2018-07-09T00:36:30.833Z,47.70
2018-07-09T00:38:59.666Z,47.90
2018-07-09T00:41:28.516Z,48.10
2018-07-09T00:43:57.358Z,48.20
2018-07-09T00:46:26.193Z,48.20
2018-07-09T00:48:55.030Z,48.50
2018-07-09T00:51:23.871Z,48.40
2018-07-09T00:53:52.710Z,48.50
2018-07-09T00:56:21.699Z,48.70
2018-07-09T00:58:50.419Z,48.70
2018-07-09T01:01:19.260Z,48.90
2018-07-09T01:03:48.850Z,49.20
2018-07-09T01:06:18.427Z,50.20
2018-07-09T01:08:47.262Z,49.60
2018-07-09T01:14:04.900Z,50.10
2018-07-09T01:16:33.745Z,50.00
2018-07-09T01:19:02.577Z,50.20
2018-07-09T01:21:31.429Z,50.00
2018-07-09T01:24:00.270Z,50.00
2018-07-09T01:26:29.152Z,50.00
2018-07-09T01:28:57.997Z,50.00
2018-07-09T01:31:26.835Z,50.30
2018-07-09T01:33:56.409Z,50.30
2018-07-09T01:38:55.402Z,50.90
2018-07-09T01:41:24.285Z,50.80
2018-07-09T01:43:53.096Z,50.80
2018-07-09T01:46:21.930Z,50.80
2018-07-09T01:48:50.775Z,50.90
2018-07-09T01:51:19.602Z,51.10
2018-07-09T01:53:48.438Z,51.20
2018-07-09T01:56:17.280Z,51.10
2018-07-09T01:58:46.137Z,51.40
2018-07-09T02:01:14.978Z,51.40
2018-07-09T02:03:43.823Z,51.80
2018-07-09T02:06:12.672Z,51.90
2018-07-09T02:08:41.513Z,52.20
2018-07-09T02:11:10.367Z,52.20
2018-07-09T02:13:39.208Z,52.30
2018-07-09T02:16:08.041Z,52.20
2018-07-09T02:18:36.888Z,52.20
2018-07-09T02:21:05.726Z,52.50
2018-07-09T02:23:34.559Z,52.30
2018-07-09T02:26:04.140Z,52.50
2018-07-09T02:28:32.991Z,52.80
2018-07-09T02:31:01.827Z,52.40
2018-07-09T02:33:31.416Z,52.60
2018-07-09T02:36:00.256Z,52.40
2018-07-09T02:38:29.102Z,52.40
2018-07-09T02:40:57.953Z,52.50
2018-07-09T02:43:26.783Z,52.50
2018-07-09T02:45:55.622Z,52.30
2018-07-09T02:48:24.459Z,52.50
2018-07-09T02:50:53.298Z,52.70
2018-07-09T02:53:22.133Z,52.80
2018-07-09T02:55:50.983Z,53.00
2018-07-09T02:58:19.813Z,52.80
2018-07-09T03:00:48.664Z,53.10
2018-07-09T03:03:17.495Z,53.00
2018-07-09T03:05:46.343Z,53.00
2018-07-09T03:08:15.177Z,53.00
2018-07-09T03:10:44.015Z,53.30
2018-07-09T03:13:12.847Z,53.20
2018-07-09T03:15:41.691Z,53.30
2018-07-09T03:18:10.528Z,53.00
2018-07-09T03:20:39.374Z,53.20
2018-07-09T03:23:08.202Z,53.40
2018-07-09T03:25:37.046Z,53.50
2018-07-09T03:28:05.882Z,53.70
2018-07-09T03:30:35.461Z,53.70
2018-07-09T03:33:04.298Z,53.90
2018-07-09T03:35:33.138Z,54.30
2018-07-09T03:38:01.979Z,54.60
2018-07-09T03:40:30.820Z,54.80
2018-07-09T03:42:59.658Z,54.80
2018-07-09T03:45:29.234Z,54.70
2018-07-09T03:47:58.070Z,55.10
2018-07-09T03:50:26.905Z,55.20
2018-07-09T03:52:55.748Z,55.20
2018-07-09T03:55:24.587Z,55.30
2018-07-09T03:57:53.416Z,55.40
2018-07-09T04:00:22.269Z,55.40
2018-07-09T04:02:51.099Z,55.60
2018-07-09T04:05:19.934Z,55.50
2018-07-09T04:07:48.761Z,55.50
2018-07-09T04:10:17.593Z,55.80
2018-07-09T04:12:46.444Z,55.90
2018-07-09T04:15:16.021Z,55.90
2018-07-09T04:17:44.858Z,56.20
2018-07-09T04:20:14.434Z,56.10
2018-07-09T04:22:43.265Z,56.30
2018-07-09T04:25:12.105Z,56.60
2018-07-09T04:27:40.938Z,56.60
2018-07-09T04:30:09.780Z,56.50
2018-07-09T04:32:38.633Z,56.30
2018-07-09T04:35:07.574Z,56.30
2018-07-09T04:37:36.422Z,56.40
2018-07-09T04:40:05.288Z,56.20
2018-07-09T04:42:34.113Z,56.40
2018-07-09T04:45:02.965Z,56.50
2018-07-09T04:47:32.541Z,56.60
2018-07-09T04:50:01.389Z,56.70
2018-07-09T04:52:30.235Z,56.80
2018-07-09T04:54:59.806Z,56.90
2018-07-09T04:57:28.635Z,57.40
2018-07-09T04:59:57.530Z,57.90
2018-07-09T05:02:26.334Z,58.00
2018-07-09T05:04:55.184Z,58.30
2018-07-09T05:07:24.024Z,58.40
2018-07-09T05:09:52.867Z,57.50
2018-07-09T05:12:21.699Z,56.60
2018-07-09T05:14:51.274Z,56.30
2018-07-09T05:17:20.113Z,56.20
2018-07-09T05:19:49.693Z,55.90
2018-07-09T05:22:18.536Z,56.00
2018-07-09T05:24:47.377Z,55.80
2018-07-09T05:27:16.214Z,55.70
2018-07-09T05:29:45.045Z,55.70
2018-07-09T05:32:13.873Z,55.80
2018-07-09T05:34:42.710Z,56.00
2018-07-09T05:37:11.545Z,56.00
2018-07-09T05:39:40.386Z,56.30
2018-07-09T05:42:09.222Z,56.10
2018-07-09T05:44:38.059Z,56.20
2018-07-09T05:47:06.911Z,56.20
2018-07-09T05:49:35.742Z,56.00
2018-07-09T05:52:04.579Z,56.00
2018-07-09T05:54:33.425Z,55.90
2018-07-09T05:57:02.266Z,55.50
2018-07-09T05:59:31.128Z,55.30
2018-07-09T06:01:59.983Z,55.80
2018-07-09T06:04:28.860Z,55.70
2018-07-09T06:06:57.666Z,55.80
2018-07-09T06:09:26.499Z,55.60
2018-07-09T06:11:56.074Z,55.40
2018-07-09T06:14:24.909Z,55.60
2018-07-09T06:16:53.742Z,55.40
2018-07-09T06:19:22.596Z,55.20
2018-07-09T06:21:51.417Z,55.30
2018-07-09T06:24:20.247Z,55.50
2018-07-09T06:26:49.824Z,55.40
2018-07-09T06:29:18.659Z,55.50
2018-07-09T06:31:47.495Z,55.40
2018-07-09T06:34:16.337Z,55.30
2018-07-09T06:36:45.904Z,55.20
2018-07-09T06:39:14.745Z,55.30
2018-07-09T06:41:43.586Z,55.70
2018-07-09T06:44:12.436Z,55.50
2018-07-09T06:46:41.264Z,55.60
2018-07-09T06:49:10.097Z,55.60
2018-07-09T06:51:38.973Z,54.70
2018-07-09T06:54:07.823Z,54.80
2018-07-09T06:56:36.662Z,55.00
2018-07-09T06:59:05.504Z,54.60
2018-07-09T07:01:34.333Z,54.30
2018-07-09T07:04:03.170Z,54.40
2018-07-09T07:06:32.015Z,53.40
2018-07-09T07:09:00.922Z,53.60
2018-07-09T07:11:29.674Z,53.90
2018-07-09T07:13:58.509Z,54.00
2018-07-09T07:16:27.380Z,53.40
2018-07-09T07:18:56.189Z,53.40
2018-07-09T07:21:25.037Z,53.60
2018-07-09T07:23:53.899Z,53.30
2018-07-09T07:26:22.739Z,53.00
2018-07-09T07:28:52.305Z,52.80
2018-07-09T07:31:21.161Z,52.70
2018-07-09T07:33:50.002Z,52.60
2018-07-09T07:36:19.583Z,52.60
2018-07-09T07:38:48.428Z,52.60
2018-07-09T07:41:17.268Z,52.60
2018-07-09T07:43:46.100Z,52.50
2018-07-09T07:46:14.939Z,52.70
2018-07-09T07:48:43.779Z,52.30
2018-07-09T07:51:12.619Z,53.40
2018-07-09T07:53:41.452Z,52.70
2018-07-09T07:56:10.294Z,52.40
2018-07-09T07:58:39.141Z,51.70
2018-07-09T08:01:07.987Z,52.10
2018-07-09T08:03:36.839Z,52.30
2018-07-09T08:06:05.685Z,51.60
2018-07-09T08:08:35.272Z,51.20
2018-07-09T08:11:11.068Z,51.20
2018-07-09T08:13:32.963Z,51.40
2018-07-09T08:16:01.779Z,50.90
2018-07-09T08:18:31.350Z,50.80
2018-07-09T08:21:00.228Z,51.20
2018-07-09T08:23:29.087Z,50.80
2018-07-09T08:25:57.926Z,49.90
2018-07-09T08:28:26.762Z,50.80
2018-07-09T08:30:55.609Z,49.80
2018-07-09T08:33:25.191Z,49.80
2018-07-09T08:35:54.042Z,49.30
2018-07-09T08:38:22.877Z,49.20
2018-07-09T08:40:51.719Z,49.00
2018-07-09T08:43:20.556Z,49.50
2018-07-09T08:45:49.409Z,49.40
2018-07-09T08:48:18.248Z,48.70
2018-07-09T08:50:47.104Z,48.80
2018-07-09T08:53:15.939Z,48.40
2018-07-09T08:55:45.511Z,48.90
2018-07-09T08:58:14.361Z,49.20
2018-07-09T09:00:43.191Z,48.90
2018-07-09T09:03:12.043Z,48.30
2018-07-09T09:05:40.878Z,48.00
2018-07-09T09:08:09.737Z,48.40
2018-07-09T09:10:38.574Z,48.70
2018-07-09T09:13:08.159Z,48.20
2018-07-09T09:15:37.009Z,47.70
2018-07-09T09:18:05.862Z,48.10
2018-07-09T09:20:34.702Z,47.80
2018-07-09T09:23:03.538Z,47.50
2018-07-09T09:25:33.139Z,47.80
2018-07-09T09:28:01.965Z,47.20
2018-07-09T09:30:30.815Z,47.60
2018-07-09T09:33:00.400Z,47.80
2018-07-09T09:35:29.239Z,47.90
2018-07-09T09:37:58.086Z,47.80
2018-07-09T09:40:26.967Z,47.20
2018-07-09T09:42:55.782Z,46.20
2018-07-09T09:45:24.635Z,46.20
2018-07-09T09:47:53.479Z,46.40
2018-07-09T09:50:23.063Z,45.80
2018-07-09T09:52:51.922Z,46.00
2018-07-09T09:55:20.761Z,45.70
2018-07-09T09:57:49.605Z,45.80
2018-07-09T10:00:18.456Z,45.60
2018-07-09T10:02:47.289Z,45.30
2018-07-09T10:05:16.138Z,44.20
2018-07-09T10:07:45.710Z,45.00
2018-07-09T10:10:14.556Z,44.00
2018-07-09T10:12:43.432Z,44.30
2018-07-09T10:15:12.241Z,44.40
2018-07-09T10:17:41.830Z,43.60
2018-07-09T10:20:10.675Z,44.00
2018-07-09T10:22:39.520Z,43.60
2018-07-09T10:25:08.358Z,43.40
2018-07-09T10:27:37.205Z,43.30
2018-07-09T10:30:06.051Z,42.40
2018-07-09T10:32:34.904Z,42.40
2018-07-09T10:35:03.757Z,43.00
2018-07-09T10:37:33.345Z,42.70
2018-07-09T10:40:02.178Z,42.30
2018-07-09T10:42:31.021Z,40.90
2018-07-09T10:45:00.611Z,41.30
2018-07-09T10:47:29.452Z,41.80
2018-07-09T10:49:59.036Z,40.70
2018-07-09T10:52:28.614Z,40.40
2018-07-09T10:54:57.454Z,40.20
2018-07-09T10:57:27.036Z,40.80
2018-07-09T10:59:55.866Z,42.10
2018-07-09T11:02:24.701Z,41.60
2018-07-09T11:04:53.543Z,41.00
2018-07-09T11:07:22.378Z,41.70
2018-07-09T11:09:51.216Z,40.70
2018-07-09T11:12:20.059Z,41.00
2018-07-09T11:14:48.900Z,40.10
2018-07-09T11:17:17.747Z,40.30
2018-07-09T11:19:46.578Z,40.20
2018-07-09T11:22:15.426Z,39.60
2018-07-09T11:24:44.285Z,39.70
2018-07-09T11:27:13.123Z,40.40
2018-07-09T11:29:42.705Z,40.10
2018-07-09T11:32:11.534Z,40.10
2018-07-09T11:34:40.391Z,38.60
2018-07-09T11:37:09.237Z,38.80
2018-07-09T11:39:38.088Z,38.60
2018-07-09T11:42:06.934Z,38.80
2018-07-09T11:44:35.762Z,39.60
2018-07-09T11:47:05.354Z,39.50
2018-07-09T11:49:34.203Z,40.40
2018-07-09T11:52:03.092Z,38.40
2018-07-09T11:54:32.622Z,38.00
2018-07-09T11:57:01.454Z,38.30
2018-07-09T11:59:30.296Z,37.60
2018-07-09T12:01:59.209Z,37.50
2018-07-09T12:04:28.722Z,37.90
2018-07-09T12:06:57.572Z,38.40
2018-07-09T12:09:26.418Z,37.50
2018-07-09T12:11:55.999Z,37.50
2018-07-09T12:14:24.853Z,36.80
2018-07-09T12:16:53.692Z,36.30
2018-07-09T12:19:22.537Z,36.00
2018-07-09T12:21:51.373Z,36.30
2018-07-09T12:24:20.227Z,35.90
2018-07-09T12:26:49.070Z,36.20
2018-07-09T12:29:17.920Z,36.80
2018-07-09T12:31:46.749Z,35.70
2018-07-09T12:34:15.582Z,33.90
2018-07-09T12:36:44.436Z,34.00
2018-07-09T12:39:13.275Z,35.00
2018-07-09T12:41:42.106Z,35.20
2018-07-09T12:44:10.968Z,34.90
2018-07-09T12:49:09.976Z,34.20
2018-07-09T12:51:38.817Z,34.20
2018-07-09T12:54:07.662Z,33.60
2018-07-09T12:56:36.497Z,33.90
2018-07-09T12:59:05.332Z,33.00
2018-07-09T13:01:34.239Z,33.10
2018-07-09T13:04:03.025Z,31.90
2018-07-09T13:06:32.613Z,33.00
2018-07-09T13:09:01.457Z,33.60
2018-07-09T13:11:30.532Z,32.30
2018-07-09T13:13:59.401Z,31.90
2018-07-09T13:16:28.237Z,31.50
2018-07-09T13:18:57.087Z,31.80
2018-07-09T13:21:25.917Z,32.80
2018-07-09T13:23:54.772Z,33.50
2018-07-09T13:26:24.355Z,34.30
2018-07-09T13:28:53.189Z,35.30
2018-07-09T13:31:22.027Z,35.30
2018-07-09T13:33:50.871Z,35.00
2018-07-09T13:36:19.718Z,34.50
2018-07-09T13:38:48.579Z,36.60
2018-07-09T13:41:17.422Z,34.90
2018-07-09T13:43:46.246Z,34.50
2018-07-09T13:46:15.841Z,34.70
2018-07-09T13:48:45.422Z,33.60
2018-07-09T13:51:14.267Z,34.30
2018-07-09T13:53:43.841Z,34.10
2018-07-09T13:56:12.674Z,33.70
2018-07-09T13:58:41.516Z,32.50
2018-07-09T14:01:10.388Z,32.40
2018-07-09T14:03:39.246Z,32.30
2018-07-09T14:06:08.113Z,32.10
2018-07-09T14:08:36.970Z,31.50
2018-07-09T14:11:05.817Z,31.80
2018-07-09T14:13:34.696Z,31.70
2018-07-09T14:16:05.303Z,29.90
2018-07-09T14:18:34.154Z,29.70
2018-07-09T14:21:02.994Z,29.50
2018-07-09T14:23:32.585Z,29.20
2018-07-09T14:28:30.876Z,29.00
2018-07-09T14:30:59.745Z,29.20
2018-07-09T14:33:28.591Z,29.40
2018-07-09T14:35:57.440Z,28.40
2018-07-09T14:38:26.300Z,28.10
2018-07-09T14:40:55.186Z,27.10
2018-07-09T14:43:24.743Z,27.30
2018-07-09T14:45:53.612Z,27.40
2018-07-09T14:48:22.416Z,26.00
2018-07-09T14:50:51.262Z,26.90
2018-07-09T14:53:20.119Z,26.70
2018-07-09T14:55:48.970Z,26.10
2018-07-09T14:58:17.825Z,26.40
2018-07-09T15:00:46.649Z,27.00
2018-07-09T15:03:15.483Z,26.40
2018-07-09T15:05:44.329Z,26.70
2018-07-09T15:10:42.608Z,26.60
2018-07-09T15:13:11.469Z,26.20
2018-07-09T15:15:40.316Z,25.60
2018-07-09T15:18:09.160Z,25.70
2018-07-09T15:20:38.001Z,25.60
2018-07-09T15:23:07.593Z,25.10
2018-07-09T15:25:36.442Z,24.80
2018-07-09T15:28:05.297Z,25.00
2018-07-09T15:30:34.139Z,24.90
2018-07-09T15:33:02.990Z,24.70
2018-07-09T15:35:31.848Z,25.00
2018-07-09T15:38:00.719Z,24.90
2018-07-09T15:40:29.554Z,24.80
2018-07-09T15:42:59.144Z,25.40
2018-07-09T15:47:57.437Z,24.80
2018-07-09T15:50:26.273Z,24.90
2018-07-09T15:52:55.133Z,24.90
2018-07-09T15:55:23.976Z,24.90
2018-07-09T15:57:52.813Z,25.00
2018-07-09T16:00:21.665Z,25.10
2018-07-09T16:02:50.528Z,25.30
2018-07-09T16:05:19.367Z,25.20
2018-07-09T16:07:48.216Z,25.60
2018-07-09T16:10:17.066Z,25.50
2018-07-09T16:12:45.978Z,25.70
2018-07-09T16:15:14.785Z,25.70
2018-07-09T16:17:43.633Z,26.10
2018-07-09T16:20:12.476Z,25.90
2018-07-09T16:22:41.306Z,25.40
2018-07-09T16:25:10.169Z,25.10
2018-07-09T16:27:39.000Z,24.70
2018-07-09T16:30:07.843Z,25.10
2018-07-09T16:32:36.669Z,26.00
2018-07-09T16:35:05.510Z,26.10
2018-07-09T16:37:34.349Z,25.70
2018-07-09T16:40:03.182Z,26.40
2018-07-09T16:42:32.032Z,26.50
2018-07-09T16:45:00.866Z,27.20
2018-07-09T16:47:29.728Z,27.90
2018-07-09T16:49:58.553Z,28.30
2018-07-09T16:52:27.404Z,28.40
2018-07-09T16:54:56.312Z,28.80
2018-07-09T16:57:25.105Z,28.70
2018-07-09T16:59:53.959Z,28.70
2018-07-09T17:02:22.797Z,28.50
2018-07-09T17:04:51.648Z,28.40
2018-07-09T17:07:20.494Z,28.70
2018-07-09T17:09:49.340Z,29.20
2018-07-09T17:12:18.194Z,29.10
2018-07-09T17:14:47.099Z,29.20
2018-07-09T17:17:15.899Z,29.90
2018-07-09T17:19:44.791Z,29.60
2018-07-09T17:22:14.331Z,30.40
2018-07-09T17:24:43.189Z,30.60
2018-07-09T17:27:12.143Z,31.90
2018-07-09T17:29:40.904Z,32.10
2018-07-09T17:32:09.757Z,31.40
2018-07-09T17:34:38.593Z,32.90
2018-07-09T17:37:07.446Z,33.80
2018-07-09T17:39:36.293Z,34.20
2018-07-09T17:42:05.130Z,34.80
2018-07-09T17:44:33.974Z,34.90
2018-07-09T17:47:02.819Z,35.10
2018-07-09T17:49:31.672Z,35.20
2018-07-09T17:52:00.502Z,34.90
2018-07-09T17:54:29.348Z,35.30
2018-07-09T17:56:59.134Z,36.00
2018-07-09T17:59:27.977Z,35.20
2018-07-09T18:01:56.830Z,35.20
2018-07-09T18:04:26.407Z,36.50
2018-07-09T18:06:55.247Z,36.50
2018-07-09T18:09:24.840Z,37.30
2018-07-09T18:11:53.669Z,37.60
2018-07-09T18:14:22.517Z,37.80
2018-07-09T18:16:51.345Z,37.80
2018-07-09T18:19:20.182Z,37.80
2018-07-09T18:21:49.014Z,38.10
2018-07-09T18:24:17.877Z,38.20
2018-07-09T18:26:46.723Z,38.00
2018-07-09T18:29:15.564Z,38.30
2018-07-09T18:31:44.406Z,38.50
2018-07-09T18:34:13.254Z,38.90
2018-07-09T18:36:42.086Z,39.20
2018-07-09T18:39:10.922Z,39.60
2018-07-09T18:41:39.761Z,39.20
2018-07-09T18:44:08.605Z,39.50
2018-07-09T18:46:37.466Z,39.20
2018-07-09T18:49:06.317Z,40.20
2018-07-09T18:51:35.159Z,40.00
2018-07-09T18:54:04.013Z,40.30
2018-07-09T18:56:32.872Z,40.50
2018-07-09T18:59:01.708Z,40.70
2018-07-09T19:01:30.617Z,41.10
2018-07-09T19:03:59.426Z,41.40
2018-07-09T19:06:29.021Z,41.50
2018-07-09T19:08:57.862Z,41.80
2018-07-09T19:11:26.709Z,42.30
2018-07-09T19:13:55.552Z,42.70
2018-07-09T19:16:24.394Z,43.00
2018-07-09T19:19:11.055Z,43.20
2018-07-09T19:21:51.766Z,43.70
2018-07-09T19:24:19.850Z,43.80
2018-07-09T19:26:47.943Z,44.40
2018-07-09T19:29:16.046Z,44.40
2018-07-09T19:31:44.127Z,45.10
2018-07-09T19:34:12.217Z,45.50
2018-07-09T19:36:40.343Z,45.70
2018-07-09T19:39:08.392Z,45.90
2018-07-09T19:41:36.505Z,45.40
2018-07-09T19:44:04.597Z,45.40
2018-07-09T19:46:32.709Z,45.70
2018-07-09T19:49:01.566Z,46.10
2018-07-09T19:51:29.650Z,46.20
2018-07-09T19:53:57.765Z,46.30
2018-07-09T19:56:25.878Z,46.40
2018-07-09T19:58:53.965Z,46.20
2018-07-09T20:01:22.068Z,45.80
2018-07-09T20:03:50.164Z,45.40
2018-07-09T20:06:18.265Z,45.30
2018-07-09T20:08:46.399Z,45.30
2018-07-09T20:11:16.378Z,45.40
2018-07-09T20:16:13.430Z,45.20
2018-07-09T20:18:41.530Z,45.30
2018-07-09T20:21:09.622Z,45.40
2018-07-09T20:23:38.463Z,45.30
2018-07-09T20:26:06.560Z,45.40
2018-07-09T20:28:34.667Z,45.50
2018-07-09T20:31:02.770Z,45.60
2018-07-09T20:33:30.878Z,45.60
2018-07-09T20:35:58.962Z,45.70
2018-07-09T20:38:27.790Z,45.70
2018-07-09T20:40:55.886Z,45.80
2018-07-09T20:43:23.987Z,45.80
2018-07-09T20:45:52.076Z,46.00
2018-07-09T20:48:20.912Z,46.10
2018-07-09T20:50:49.016Z,46.30
2018-07-09T20:53:17.107Z,46.40
2018-07-09T20:55:45.944Z,46.60
2018-07-09T20:58:14.041Z,47.20
2018-07-09T21:00:42.134Z,47.30
2018-07-09T21:03:10.990Z,48.10
2018-07-09T21:05:39.077Z,49.00
2018-07-09T21:08:07.170Z,49.50
2018-07-09T21:10:35.257Z,49.80
2018-07-09T21:13:03.347Z,50.20
2018-07-09T21:15:31.527Z,50.50
2018-07-09T21:17:59.529Z,50.90
2018-07-09T21:20:27.623Z,51.30
2018-07-09T21:22:56.445Z,51.60
2018-07-09T21:25:24.546Z,51.50
2018-07-09T21:27:52.641Z,52.00
2018-07-09T21:30:20.756Z,52.10
2018-07-09T21:32:48.841Z,51.80
2018-07-09T21:35:16.936Z,51.70
2018-07-09T21:37:45.148Z,51.60
2018-07-09T21:40:13.137Z,51.60
2018-07-09T21:42:41.238Z,52.10
2018-07-09T21:45:09.332Z,51.50
2018-07-09T21:47:37.419Z,51.20
2018-07-09T21:50:05.515Z,51.10
2018-07-09T21:52:34.355Z,51.20
2018-07-09T21:55:02.439Z,51.20
2018-07-09T21:57:30.526Z,51.20
2018-07-09T21:59:58.600Z,51.40
2018-07-09T22:02:26.717Z,51.40
2018-07-09T22:04:54.792Z,51.70
2018-07-09T22:07:22.909Z,51.50
2018-07-09T22:09:50.997Z,51.60
2018-07-09T22:12:19.082Z,51.60
2018-07-09T22:14:47.170Z,51.80
2018-07-09T22:17:15.251Z,51.90
2018-07-09T22:19:43.355Z,52.00
2018-07-09T22:22:11.435Z,52.30
2018-07-09T22:24:39.586Z,52.60
2018-07-09T22:27:07.606Z,52.70
2018-07-09T22:29:35.692Z,52.80
2018-07-09T22:32:04.539Z,52.90
2018-07-09T22:34:33.379Z,53.00
2018-07-09T22:37:02.231Z,53.20
2018-07-09T22:39:31.082Z,53.50
2018-07-09T22:41:59.922Z,53.80
2018-07-09T22:44:28.770Z,54.60
2018-07-09T22:46:57.603Z,54.10
2018-07-09T22:49:27.185Z,54.20
2018-07-09T22:51:56.024Z,54.20
2018-07-09T22:54:24.911Z,54.40
2018-07-09T22:56:53.711Z,54.70
2018-07-09T22:59:22.546Z,55.00
2018-07-09T23:01:51.378Z,55.10
2018-07-09T23:04:20.969Z,55.10
2018-07-09T23:06:50.551Z,55.40
2018-07-09T23:09:19.390Z,55.20
2018-07-09T23:11:48.229Z,55.60
2018-07-09T23:14:17.062Z,55.90
2018-07-09T23:16:59.430Z,56.00
2018-07-09T23:19:31.102Z,56.60
2018-07-09T23:21:59.947Z,56.70
2018-07-09T23:24:28.031Z,56.80
2018-07-09T23:26:56.116Z,56.90
2018-07-09T23:29:24.217Z,57.10
2018-07-09T23:31:53.049Z,57.30
2018-07-09T23:34:21.142Z,57.30
2018-07-09T23:36:49.246Z,57.50
2018-07-09T23:39:17.333Z,57.50
2018-07-09T23:41:46.167Z,57.60
2018-07-09T23:44:14.264Z,58.00
2018-07-09T23:46:42.360Z,58.30
2018-07-09T23:49:11.203Z,58.50
2018-07-09T23:51:39.300Z,58.40
2018-07-09T23:54:07.402Z,58.40
2018-07-09T23:56:36.258Z,58.20
2018-07-09T23:59:05.088Z,58.20
